createdAt,value
2022-11-24T00:01:40.193Z,62.81
2022-11-24T00:04:10.661Z,62.38
2022-11-24T00:06:40.649Z,62.54
2022-11-24T00:09:14.078Z,62.56
2022-11-24T00:11:44.057Z,62.79
2022-11-24T00:14:16.100Z,62.74
2022-11-24T00:16:46.164Z,62.70
2022-11-24T00:19:19.743Z,62.95
2022-11-24T00:21:50.378Z,62.92
2022-11-24T00:24:23.099Z,63.11
2022-11-24T00:26:53.086Z,62.76
2022-11-24T00:29:23.120Z,63.06
2022-11-24T00:31:53.101Z,62.76
2022-11-24T00:34:23.284Z,62.46
2022-11-24T00:36:53.333Z,62.33
2022-11-24T00:39:26.024Z,62.63
2022-11-24T00:41:56.004Z,62.68
2022-11-24T00:44:25.992Z,62.89
2022-11-24T00:46:56.088Z,62.50
2022-11-24T00:49:26.304Z,62.84
2022-11-24T00:51:56.400Z,62.82
2022-11-24T00:54:29.062Z,62.71
2022-11-24T00:56:59.087Z,63.60
2022-11-24T00:59:29.076Z,63.16
2022-11-24T01:01:59.255Z,62.96
2022-11-24T01:04:29.675Z,62.96
2022-11-24T01:06:59.649Z,62.83
2022-11-24T01:09:32.327Z,63.06
2022-11-24T01:12:05.202Z,64.23
2022-11-24T01:14:36.079Z,63.45
2022-11-24T01:17:06.588Z,63.09
2022-11-24T01:19:36.802Z,63.09
2022-11-24T01:22:06.992Z,62.80
2022-11-24T01:24:39.611Z,62.73
2022-11-24T01:27:10.349Z,63.24
2022-11-24T01:29:40.412Z,62.96
2022-11-24T01:32:10.570Z,63.09
2022-11-24T01:34:40.513Z,62.92
2022-11-24T01:37:10.676Z,62.97
2022-11-24T01:39:44.184Z,63.29
2022-11-24T01:42:14.410Z,63.16
2022-11-24T01:44:45.187Z,62.99
2022-11-24T01:47:32.520Z,63.17
2022-11-24T01:50:05.687Z,64.15
2022-11-24T01:52:40.022Z,64.69
2022-11-24T01:55:16.921Z,63.84
2022-11-24T01:57:51.525Z,63.43
2022-11-24T02:00:21.899Z,63.62
2022-11-24T02:02:52.762Z,63.81
2022-11-24T02:05:27.096Z,64.15
2022-11-24T02:08:00.303Z,63.78
2022-11-24T02:10:33.210Z,63.54
2022-11-24T02:13:03.536Z,63.25
2022-11-24T02:15:35.310Z,63.31
2022-11-24T02:18:05.865Z,63.37
2022-11-24T02:20:36.723Z,63.34
2022-11-24T02:23:14.004Z,63.06
2022-11-24T02:25:54.675Z,63.10
2022-11-24T02:28:31.058Z,63.50
2022-11-24T02:31:02.715Z,63.44
2022-11-24T02:33:33.235Z,63.90
2022-11-24T02:36:03.287Z,63.47
2022-11-24T02:38:34.639Z,63.33
2022-11-24T02:41:08.917Z,64.36
2022-11-24T02:43:45.545Z,63.94
2022-11-24T02:46:15.635Z,63.39
2022-11-24T02:48:45.671Z,64.50
2022-11-24T02:51:15.773Z,64.17
2022-11-24T02:53:45.886Z,63.62
2022-11-24T02:56:16.250Z,63.46
2022-11-24T02:58:48.813Z,63.48
2022-11-24T03:01:19.035Z,63.49
2022-11-24T03:03:49.193Z,64.50
2022-11-24T03:06:19.688Z,63.71
2022-11-24T03:08:49.881Z,63.46
2022-11-24T03:11:19.842Z,62.99
2022-11-24T03:13:52.518Z,63.27
2022-11-24T03:16:22.645Z,63.73
2022-11-24T03:18:53.855Z,63.46
2022-11-24T03:21:23.899Z,63.01
2022-11-24T03:23:55.184Z,62.94
2022-11-24T03:26:27.346Z,63.13
2022-11-24T03:29:00.404Z,64.03
2022-11-24T03:31:30.542Z,63.39
2022-11-24T03:34:00.588Z,63.16
2022-11-24T03:36:30.617Z,63.19
2022-11-24T03:39:00.644Z,63.13
2022-11-24T03:41:30.626Z,63.18
2022-11-24T03:44:03.452Z,63.33
2022-11-24T03:46:33.663Z,64.43
2022-11-24T03:49:03.883Z,63.49
2022-11-24T03:51:33.981Z,63.59
2022-11-24T03:54:04.173Z,63.21
2022-11-24T03:56:34.130Z,63.72
2022-11-24T03:59:06.769Z,64.93
2022-11-24T04:01:37.197Z,64.49
2022-11-24T04:04:07.624Z,63.74
2022-11-24T04:06:37.690Z,63.35
2022-11-24T04:09:08.105Z,63.36
2022-11-24T04:11:50.465Z,63.11
2022-11-24T04:14:23.082Z,63.21
2022-11-24T04:16:53.077Z,63.53
2022-11-24T04:19:23.073Z,63.73
2022-11-24T04:21:53.168Z,64.72
2022-11-24T04:24:23.284Z,63.88
2022-11-24T04:26:53.298Z,63.48
2022-11-24T04:29:25.878Z,62.97
2022-11-24T04:31:55.892Z,62.73
2022-11-24T04:34:25.897Z,62.76
2022-11-24T04:36:55.903Z,63.07
2022-11-24T04:39:28.016Z,63.40
2022-11-24T04:41:58.639Z,63.40
2022-11-24T04:44:31.366Z,63.17
2022-11-24T04:47:01.472Z,63.28
2022-11-24T04:49:31.630Z,63.14
2022-11-24T04:52:02.135Z,63.40
2022-11-24T04:54:32.387Z,63.04
2022-11-24T04:57:02.541Z,62.75
2022-11-24T04:59:35.288Z,62.87
2022-11-24T05:02:05.399Z,62.55
2022-11-24T05:04:35.712Z,62.75
2022-11-24T05:07:06.435Z,62.18
2022-11-24T05:09:59.677Z,62.23
2022-11-24T05:12:31.372Z,62.06
2022-11-24T05:15:05.077Z,62.21
2022-11-24T05:17:36.982Z,62.62
2022-11-24T05:20:09.154Z,62.80
2022-11-24T05:22:39.161Z,63.18
2022-11-24T05:25:09.483Z,62.95
2022-11-24T05:27:39.505Z,62.91
2022-11-24T05:30:13.224Z,63.92
2022-11-24T05:32:43.691Z,63.29
2022-11-24T05:35:14.445Z,63.18
2022-11-24T05:37:44.539Z,63.10
2022-11-24T05:40:14.614Z,63.10
2022-11-24T05:42:47.855Z,64.46
2022-11-24T05:45:23.215Z,64.16
2022-11-24T05:47:54.075Z,63.40
2022-11-24T05:50:25.746Z,63.09
2022-11-24T05:52:55.702Z,62.97
2022-11-24T05:55:25.576Z,63.19
2022-11-24T05:58:01.219Z,63.66
2022-11-24T06:00:35.226Z,63.09
2022-11-24T06:03:05.568Z,62.86
2022-11-24T06:05:35.530Z,62.87
2022-11-24T06:08:05.454Z,63.30
2022-11-24T06:10:35.355Z,62.81
2022-11-24T06:13:08.731Z,62.97
2022-11-24T06:15:41.538Z,62.59
2022-11-24T06:18:11.491Z,62.30
2022-11-24T06:21:02.903Z,62.34
2022-11-24T06:23:33.958Z,62.30
2022-11-24T06:26:04.027Z,62.07
2022-11-24T06:28:34.149Z,62.21
2022-11-24T06:31:08.479Z,62.84
2022-11-24T06:33:40.542Z,63.18
2022-11-24T06:36:14.972Z,62.72
2022-11-24T06:38:44.903Z,63.03
2022-11-24T06:41:18.080Z,63.42
2022-11-24T06:43:48.361Z,63.67
2022-11-24T06:46:21.027Z,63.72
2022-11-24T06:48:51.042Z,63.18
2022-11-24T06:51:21.696Z,62.92
2022-11-24T06:53:51.630Z,62.50
2022-11-24T06:56:23.148Z,62.82
2022-11-24T06:58:55.155Z,62.35
2022-11-24T07:01:29.380Z,61.96
2022-11-24T07:03:59.965Z,62.64
2022-11-24T07:06:30.092Z,62.27
2022-11-24T07:09:00.073Z,62.47
2022-11-24T07:11:30.190Z,62.20
2022-11-24T07:14:00.801Z,62.50
2022-11-24T07:16:33.649Z,62.24
2022-11-24T07:19:03.968Z,61.98
2022-11-24T07:21:33.968Z,61.64
2022-11-24T07:24:03.961Z,61.66
2022-11-24T07:26:37.412Z,61.92
2022-11-24T07:29:07.861Z,61.66
2022-11-24T07:31:40.748Z,61.48
2022-11-24T07:34:10.936Z,61.32
2022-11-24T07:36:40.908Z,61.42
2022-11-24T07:39:11.119Z,61.28
2022-11-24T07:41:41.099Z,61.21
2022-11-24T07:44:11.218Z,61.03
2022-11-24T07:46:43.798Z,61.33
2022-11-24T07:49:13.801Z,61.27
2022-11-24T07:51:44.124Z,61.44
2022-11-24T07:54:14.746Z,61.18
2022-11-24T07:56:44.889Z,60.95
2022-11-24T07:59:14.795Z,62.88
2022-11-24T08:01:48.324Z,62.37
2022-11-24T08:04:18.286Z,62.26
2022-11-24T08:06:48.221Z,61.81
2022-11-24T08:09:18.120Z,61.67
2022-11-24T08:11:48.118Z,61.30
2022-11-24T08:14:18.091Z,61.24
2022-11-24T08:16:50.694Z,61.28
2022-11-24T08:19:20.668Z,62.14
2022-11-24T08:21:50.581Z,63.16
2022-11-24T08:24:20.513Z,63.04
2022-11-24T08:26:50.572Z,62.23
2022-11-24T08:29:20.759Z,61.42
2022-11-24T08:31:53.398Z,63.54
2022-11-24T08:34:24.020Z,62.28
2022-11-24T08:36:54.022Z,61.90
2022-11-24T08:39:24.472Z,61.75
2022-11-24T08:41:54.476Z,61.34
2022-11-24T08:44:24.614Z,60.98
2022-11-24T08:46:57.658Z,60.94
2022-11-24T08:49:27.677Z,61.65
2022-11-24T08:52:00.699Z,62.37
2022-11-24T08:54:31.059Z,61.91
2022-11-24T08:57:00.993Z,61.75
2022-11-24T08:59:31.097Z,61.63
2022-11-24T09:02:03.749Z,62.61
2022-11-24T09:04:34.232Z,61.85
2022-11-24T09:07:07.930Z,61.32
2022-11-24T09:09:38.166Z,62.01
2022-11-24T09:12:14.353Z,61.52
2022-11-24T09:14:45.160Z,61.73
2022-11-24T09:17:17.774Z,61.46
2022-11-24T09:19:48.106Z,61.74
2022-11-24T09:22:19.247Z,61.72
2022-11-24T09:24:49.408Z,61.63
2022-11-24T09:27:19.543Z,61.69
2022-11-24T09:29:49.509Z,61.56
2022-11-24T09:32:22.178Z,61.69
2022-11-24T09:34:53.332Z,62.06
2022-11-24T09:37:26.929Z,61.68
2022-11-24T09:39:59.581Z,62.27
2022-11-24T09:42:36.970Z,63.17
2022-11-24T09:45:35.403Z,64.99
2022-11-24T09:48:18.796Z,63.21
2022-11-24T09:50:51.319Z,62.54
2022-11-24T09:53:30.792Z,62.12
2022-11-24T09:56:03.722Z,62.79
2022-11-24T09:58:39.897Z,62.89
2022-11-24T10:01:18.354Z,64.20
2022-11-24T10:03:53.321Z,65.55
2022-11-24T10:06:30.668Z,63.62
2022-11-24T10:09:13.506Z,62.80
2022-11-24T10:11:53.016Z,61.80
2022-11-24T10:14:43.906Z,61.22
2022-11-24T10:17:21.620Z,61.19
2022-11-24T10:20:00.486Z,61.23
2022-11-24T10:22:52.959Z,61.27
2022-11-24T10:25:27.410Z,61.55
2022-11-24T10:28:02.101Z,61.25
2022-11-24T10:30:32.750Z,61.36
2022-11-24T10:33:09.246Z,61.45
2022-11-24T10:35:47.467Z,61.20
2022-11-24T10:38:35.064Z,61.53
2022-11-24T10:41:10.635Z,61.35
2022-11-24T10:43:43.871Z,61.05
2022-11-24T10:46:17.931Z,61.42
2022-11-24T10:48:53.960Z,61.01
2022-11-24T10:51:49.836Z,61.83
2022-11-24T10:54:22.052Z,61.77
2022-11-24T10:56:54.565Z,62.40
2022-11-24T10:59:33.541Z,61.76
2022-11-24T11:02:04.366Z,61.23
2022-11-24T11:04:36.628Z,61.02
2022-11-24T11:07:20.423Z,60.60
2022-11-24T11:09:51.328Z,60.92
2022-11-24T11:12:43.489Z,60.04
2022-11-24T11:15:26.468Z,59.52
2022-11-24T11:18:01.120Z,60.02
2022-11-24T11:20:34.045Z,60.01
2022-11-24T11:23:17.702Z,60.14
2022-11-24T11:25:48.494Z,59.66
2022-11-24T11:28:36.432Z,59.36
2022-11-24T11:31:17.776Z,59.12
2022-11-24T11:34:09.509Z,59.31
2022-11-24T11:36:46.830Z,58.91
2022-11-24T11:39:29.207Z,58.90
2022-11-24T11:42:10.908Z,58.65
2022-11-24T11:44:44.783Z,58.94
2022-11-24T11:47:22.954Z,58.93
2022-11-24T11:49:53.269Z,58.93
2022-11-24T11:52:53.674Z,59.83
2022-11-24T11:55:39.250Z,59.21
2022-11-24T11:58:26.851Z,57.37
2022-11-24T12:01:07.593Z,57.07
2022-11-24T12:03:59.181Z,57.36
2022-11-24T12:06:48.806Z,57.97
2022-11-24T12:09:31.989Z,58.81
2022-11-24T12:12:22.647Z,59.06
2022-11-24T12:15:07.348Z,59.30
2022-11-24T12:17:45.594Z,59.82
2022-11-24T12:20:41.932Z,60.02
2022-11-24T12:23:21.705Z,60.25
2022-11-24T12:26:02.105Z,60.50
2022-11-24T12:28:48.077Z,60.71
2022-11-24T12:31:29.030Z,60.85
2022-11-24T12:34:22.884Z,60.90
2022-11-24T12:37:14.841Z,60.37
2022-11-24T12:39:55.539Z,59.75
2022-11-24T12:42:35.178Z,56.62
2022-11-24T12:45:19.693Z,55.93
2022-11-24T12:48:06.114Z,56.81
2022-11-24T12:50:40.676Z,56.46
2022-11-24T12:53:16.481Z,56.47
2022-11-24T12:55:47.443Z,57.12
2022-11-24T12:58:23.289Z,57.81
2022-11-24T13:01:14.815Z,58.14
2022-11-24T13:03:59.994Z,58.72
2022-11-24T13:06:37.612Z,59.31
2022-11-24T13:09:12.190Z,59.97
2022-11-24T13:11:45.152Z,60.54
2022-11-24T13:14:21.711Z,60.59
2022-11-24T13:17:28.032Z,60.93
2022-11-24T13:19:51.082Z,61.01
2022-11-24T13:22:27.253Z,61.08
2022-11-24T13:25:16.591Z,61.16
2022-11-24T13:27:49.224Z,61.27
2022-11-24T13:31:12.123Z,61.17
2022-11-24T13:33:45.170Z,61.52
2022-11-24T13:36:33.868Z,61.68
2022-11-24T13:39:06.648Z,61.72
2022-11-24T13:42:10.001Z,62.27
2022-11-24T13:45:01.880Z,62.22
2022-11-24T13:47:41.011Z,62.24
2022-11-24T13:50:26.314Z,62.26
2022-11-24T13:53:01.974Z,62.26
2022-11-24T13:55:38.713Z,62.42
2022-11-24T13:58:32.717Z,62.19
2022-11-24T14:01:13.642Z,62.34
2022-11-24T14:04:21.565Z,62.53
2022-11-24T14:06:45.117Z,62.42
2022-11-24T14:09:26.996Z,62.69
2022-11-24T14:12:09.072Z,62.62
2022-11-24T14:14:39.112Z,62.75
2022-11-24T14:17:20.600Z,63.05
2022-11-24T14:19:52.185Z,62.93
2022-11-24T14:22:27.752Z,62.95
2022-11-24T14:25:00.679Z,62.94
2022-11-24T14:27:37.009Z,62.87
2022-11-24T14:30:20.381Z,63.06
2022-11-24T14:32:58.157Z,63.21
2022-11-24T14:35:30.608Z,63.38
2022-11-24T14:38:05.311Z,63.50
2022-11-24T14:40:43.984Z,63.82
2022-11-24T14:43:22.269Z,64.19
2022-11-24T14:45:54.099Z,64.04
2022-11-24T14:48:29.037Z,64.73
2022-11-24T14:51:10.251Z,64.98
2022-11-24T14:53:44.772Z,65.10
2022-11-24T14:56:26.622Z,65.52
2022-11-24T14:58:57.646Z,65.59
2022-11-24T15:01:36.698Z,65.05
2022-11-24T15:07:21.968Z,64.80
2022-11-24T15:09:58.057Z,64.63
2022-11-24T15:12:31.558Z,64.16
2022-11-24T15:15:04.836Z,64.17
2022-11-24T15:17:35.051Z,65.10
2022-11-24T15:20:11.164Z,64.80
2022-11-24T15:22:43.771Z,64.54
2022-11-24T15:25:36.654Z,64.28
2022-11-24T15:28:06.739Z,64.29
2022-11-24T15:30:38.150Z,64.46
2022-11-24T15:33:16.473Z,64.37
2022-11-24T15:35:47.516Z,64.45
2022-11-24T15:38:18.108Z,64.60
2022-11-24T15:40:52.769Z,64.57
2022-11-24T15:43:30.666Z,64.34
2022-11-24T15:46:02.073Z,64.90
2022-11-24T15:48:36.377Z,64.54
2022-11-24T15:51:08.847Z,64.73
2022-11-24T15:53:42.228Z,64.67
2022-11-24T15:56:17.895Z,64.45
2022-11-24T15:58:48.535Z,64.58
2022-11-24T16:01:18.824Z,65.09
2022-11-24T16:03:49.444Z,64.78
2022-11-24T16:06:25.029Z,64.72
2022-11-24T16:08:56.057Z,64.81
2022-11-24T16:11:29.133Z,64.61
2022-11-24T16:13:59.236Z,65.54
2022-11-24T16:16:29.309Z,65.12
2022-11-24T16:18:59.267Z,64.62
2022-11-24T16:21:29.257Z,64.55
2022-11-24T16:23:59.280Z,64.52
2022-11-24T16:26:31.825Z,64.58
2022-11-24T16:29:01.772Z,64.52
2022-11-24T16:31:31.807Z,64.33
2022-11-24T16:34:02.095Z,64.38
2022-11-24T16:36:32.364Z,64.53
2022-11-24T16:39:02.694Z,64.74
2022-11-24T16:41:35.346Z,66.10
2022-11-24T16:44:05.431Z,65.36
2022-11-24T16:46:35.552Z,65.30
2022-11-24T16:49:05.861Z,65.19
2022-11-24T16:51:35.896Z,64.97
2022-11-24T16:54:06.587Z,64.74
2022-11-24T16:56:39.161Z,64.78
2022-11-24T16:59:09.197Z,65.52
2022-11-24T17:01:40.253Z,64.96
2022-11-24T17:04:12.719Z,64.99
2022-11-24T17:06:43.135Z,64.85
2022-11-24T17:09:13.420Z,64.66
2022-11-24T17:11:46.141Z,64.58
2022-11-24T17:14:16.502Z,64.48
2022-11-24T17:16:46.605Z,67.11
2022-11-24T17:19:16.766Z,66.33
2022-11-24T17:21:46.735Z,66.21
2022-11-24T17:24:18.188Z,65.42
2022-11-24T17:26:52.309Z,65.03
2022-11-24T17:29:23.229Z,66.08
2022-11-24T17:31:53.314Z,65.46
2022-11-24T17:34:23.600Z,64.99
2022-11-24T17:36:53.557Z,64.67
2022-11-24T17:39:25.190Z,64.47
2022-11-24T17:41:58.065Z,64.53
2022-11-24T17:44:28.455Z,64.49
2022-11-24T17:46:58.967Z,64.43
2022-11-24T17:49:29.063Z,65.05
2022-11-24T17:51:59.219Z,65.11
2022-11-24T17:54:46.054Z,65.04
2022-11-24T17:57:22.188Z,64.98
2022-11-24T17:59:53.298Z,66.16
2022-11-24T18:02:24.475Z,65.30
2022-11-24T18:04:54.742Z,65.24
2022-11-24T18:07:24.993Z,65.41
2022-11-24T18:09:55.087Z,64.97
2022-11-24T18:12:27.932Z,64.75
2022-11-24T18:14:58.016Z,65.67
2022-11-24T18:17:29.091Z,65.83
2022-11-24T18:19:59.200Z,65.47
2022-11-24T18:22:57.932Z,64.99
2022-11-24T18:25:19.331Z,64.40
2022-11-24T18:27:52.208Z,64.41
2022-11-24T18:30:22.346Z,64.06
2022-11-24T18:32:52.365Z,64.17
2022-11-24T18:35:22.425Z,64.21
2022-11-24T18:37:52.371Z,64.37
2022-11-24T18:40:22.481Z,64.04
2022-11-24T18:42:55.246Z,64.06
2022-11-24T18:45:27.443Z,64.10
2022-11-24T18:47:57.568Z,63.94
2022-11-24T18:50:27.611Z,63.69
2022-11-24T18:52:57.551Z,63.83
2022-11-24T18:55:27.551Z,63.56
2022-11-24T18:58:00.250Z,63.89
2022-11-24T19:00:30.233Z,64.06
2022-11-24T19:03:00.505Z,64.18
2022-11-24T19:05:30.530Z,64.09
2022-11-24T19:08:00.544Z,65.09
2022-11-24T19:10:30.692Z,64.73
2022-11-24T19:13:03.360Z,64.44
2022-11-24T19:15:35.781Z,64.07
2022-11-24T19:18:05.754Z,64.08
2022-11-24T19:20:37.349Z,63.98
2022-11-24T19:23:07.323Z,63.93
2022-11-24T19:25:37.285Z,63.92
2022-11-24T19:28:12.671Z,63.89
2022-11-24T19:30:45.386Z,64.17
2022-11-24T19:33:15.391Z,63.88
2022-11-24T19:35:45.540Z,64.00
2022-11-24T19:38:15.705Z,63.82
2022-11-24T19:40:45.644Z,63.88
2022-11-24T19:43:18.234Z,63.87
2022-11-24T19:45:48.239Z,63.91
2022-11-24T19:48:18.282Z,63.85
2022-11-24T19:50:48.298Z,63.71
2022-11-24T19:53:18.303Z,63.54
2022-11-24T19:55:48.236Z,63.33
2022-11-24T19:58:20.829Z,63.44
2022-11-24T20:00:50.891Z,63.71
2022-11-24T20:03:20.882Z,64.01
2022-11-24T20:05:58.089Z,65.06
2022-11-24T20:08:30.665Z,64.21
2022-11-24T20:11:06.117Z,64.22
2022-11-24T20:13:40.552Z,63.86
2022-11-24T20:16:12.810Z,64.05
2022-11-24T20:18:44.586Z,63.74
2022-11-24T20:21:16.218Z,63.88
2022-11-24T20:23:48.782Z,63.87
2022-11-24T20:26:23.040Z,64.03
2022-11-24T20:28:58.164Z,64.58
2022-11-24T20:31:30.158Z,64.38
2022-11-24T20:34:00.721Z,64.43
2022-11-24T20:36:32.846Z,64.31
2022-11-24T20:39:04.770Z,63.97
2022-11-24T20:41:36.532Z,63.82
2022-11-24T20:44:13.180Z,63.65
2022-11-24T20:46:44.966Z,63.54
2022-11-24T20:49:17.417Z,63.51
2022-11-24T20:51:47.840Z,63.46
2022-11-24T20:54:19.740Z,64.01
2022-11-24T20:56:50.715Z,64.07
2022-11-24T20:59:25.670Z,64.19
2022-11-24T21:01:59.266Z,64.17
2022-11-24T21:04:30.125Z,64.22
2022-11-24T21:07:00.046Z,64.49
2022-11-24T21:09:30.746Z,64.28
2022-11-24T21:12:01.371Z,64.45
2022-11-24T21:14:35.373Z,64.76
2022-11-24T21:17:05.524Z,64.58
2022-11-24T21:19:35.427Z,64.24
2022-11-24T21:22:05.405Z,64.28
2022-11-24T21:24:35.551Z,64.75
2022-11-24T21:27:05.676Z,64.30
2022-11-24T21:29:38.236Z,64.32
2022-11-24T21:32:08.773Z,64.11
2022-11-24T21:34:38.776Z,64.02
2022-11-24T21:37:08.691Z,63.92
2022-11-24T21:39:38.618Z,63.88
2022-11-24T21:42:09.275Z,63.95
2022-11-24T21:44:41.809Z,63.92
2022-11-24T21:47:11.770Z,63.83
2022-11-24T21:49:41.789Z,64.19
2022-11-24T21:52:11.656Z,64.08
2022-11-24T21:54:41.597Z,64.15
2022-11-24T21:57:12.413Z,63.85
2022-11-24T21:59:44.951Z,63.87
2022-11-24T22:02:15.478Z,63.87
2022-11-24T22:04:45.555Z,63.91
2022-11-24T22:07:15.797Z,63.98
2022-11-24T22:09:46.794Z,63.94
2022-11-24T22:12:16.737Z,64.00
2022-11-24T22:14:49.282Z,63.72
2022-11-24T22:17:19.337Z,63.49
2022-11-24T22:19:49.298Z,63.56
2022-11-24T22:22:19.224Z,63.97
2022-11-24T22:24:49.310Z,63.67
2022-11-24T22:27:19.592Z,63.59
2022-11-24T22:29:54.273Z,63.67
2022-11-24T22:32:24.547Z,63.58
2022-11-24T22:34:54.543Z,63.54
2022-11-24T22:37:24.523Z,63.36
2022-11-24T22:39:54.646Z,63.42
2022-11-24T22:42:24.758Z,63.20
2022-11-24T22:44:57.363Z,63.46
2022-11-24T22:47:27.326Z,63.44
2022-11-24T22:49:57.272Z,63.48
2022-11-24T22:52:27.178Z,63.49
2022-11-24T22:54:57.102Z,63.27
2022-11-24T22:57:27.042Z,63.47
2022-11-24T22:59:59.567Z,63.57
2022-11-24T23:02:29.712Z,63.60
2022-11-24T23:04:59.686Z,63.46
2022-11-24T23:07:29.668Z,63.71
2022-11-24T23:09:59.723Z,63.67
2022-11-24T23:12:29.736Z,63.60
2022-11-24T23:15:02.347Z,63.42
2022-11-24T23:17:32.435Z,63.54
2022-11-24T23:20:02.463Z,63.56
2022-11-24T23:22:32.417Z,63.70
2022-11-24T23:25:02.451Z,63.75
2022-11-24T23:27:32.489Z,63.52
2022-11-24T23:30:05.088Z,63.34
2022-11-24T23:32:35.066Z,63.42
2022-11-24T23:35:07.501Z,63.53
2022-11-24T23:38:06.023Z,63.75
2022-11-24T23:40:32.327Z,63.51
2022-11-24T23:43:02.244Z,63.36
2022-11-24T23:45:34.987Z,63.63
2022-11-24T23:48:05.357Z,63.36
2022-11-24T23:50:35.301Z,63.66
2022-11-24T23:53:05.233Z,63.67
2022-11-24T23:55:35.140Z,63.94
2022-11-24T23:58:05.297Z,63.61
